createdAt,value
2019-01-17T00:00:56.212Z,-78
2019-01-17T00:01:56.902Z,-79
2019-01-17T00:02:56.221Z,-79
2019-01-17T00:03:56.315Z,-79
2019-01-17T00:04:56.413Z,-79
2019-01-17T00:05:56.522Z,-79
2019-01-17T00:06:56.277Z,-79
2019-01-17T00:07:56.213Z,-79
2019-01-17T00:08:56.236Z,-79
2019-01-17T00:09:56.476Z,-78
2019-01-17T00:10:56.356Z,-78
2019-01-17T00:11:56.188Z,-79
2019-01-17T00:12:56.522Z,-78
2019-01-17T00:13:56.230Z,-79
2019-01-17T00:14:56.188Z,-79
2019-01-17T00:15:56.610Z,-79
2019-01-17T00:16:56.172Z,-79
2019-01-17T00:17:56.119Z,-79
2019-01-17T00:18:56.474Z,-79
2019-01-17T00:19:56.273Z,-79
2019-01-17T00:20:56.185Z,-80
2019-01-17T00:21:56.322Z,-80
2019-01-17T00:22:56.555Z,-77
2019-01-17T00:24:02.423Z,-79
2019-01-17T00:24:56.424Z,-81
2019-01-17T00:25:56.502Z,-80
2019-01-17T00:26:55.936Z,-81
2019-01-17T00:27:56.414Z,-79
2019-01-17T00:28:56.424Z,-78
2019-01-17T00:29:56.782Z,-78
2019-01-17T00:30:57.288Z,-77
2019-01-17T00:31:56.458Z,-79
2019-01-17T00:32:56.450Z,-80
2019-01-17T00:33:56.175Z,-79
2019-01-17T00:34:56.487Z,-77
2019-01-17T00:35:56.218Z,-78
2019-01-17T00:36:56.255Z,-78
2019-01-17T00:37:56.403Z,-78
2019-01-17T00:38:56.484Z,-78
2019-01-17T00:39:56.443Z,-80
2019-01-17T00:40:56.090Z,-79
2019-01-17T00:41:56.140Z,-78
2019-01-17T00:42:56.277Z,-78
2019-01-17T00:43:56.416Z,-79
2019-01-17T00:44:56.622Z,-79
2019-01-17T00:45:56.352Z,-78
2019-01-17T00:46:56.207Z,-79
2019-01-17T00:47:56.412Z,-78
2019-01-17T00:48:56.783Z,-77
2019-01-17T00:49:56.128Z,-79
2019-01-17T00:50:55.987Z,-78
2019-01-17T00:51:56.267Z,-78
2019-01-17T00:52:57.912Z,-77
2019-01-17T00:53:56.217Z,-79
2019-01-17T00:54:56.288Z,-80
2019-01-17T00:55:56.318Z,-79
2019-01-17T00:56:56.462Z,-79
2019-01-17T00:57:56.392Z,-78
2019-01-17T00:58:56.060Z,-80
2019-01-17T00:59:56.278Z,-78
2019-01-17T01:00:56.217Z,-79
2019-01-17T01:01:56.475Z,-78
2019-01-17T01:02:56.371Z,-79
2019-01-17T01:03:56.353Z,-79
2019-01-17T01:04:56.486Z,-77
2019-01-17T01:05:56.421Z,-78
2019-01-17T01:06:56.364Z,-79
2019-01-17T01:07:56.207Z,-78
2019-01-17T01:08:56.319Z,-80
2019-01-17T01:09:56.195Z,-79
2019-01-17T01:10:56.196Z,-79
2019-01-17T01:11:56.236Z,-79
2019-01-17T01:12:56.190Z,-78
2019-01-17T01:13:57.598Z,-80
2019-01-17T01:14:56.549Z,-78
2019-01-17T01:15:56.333Z,-76
2019-01-17T01:16:56.330Z,-78
2019-01-17T01:17:56.351Z,-79
2019-01-17T01:18:56.051Z,-79
2019-01-17T01:19:56.132Z,-80
2019-01-17T01:20:56.057Z,-79
2019-01-17T01:21:56.374Z,-78
2019-01-17T01:22:56.221Z,-78
2019-01-17T01:23:56.394Z,-77
2019-01-17T01:24:56.128Z,-79
2019-01-17T01:25:56.153Z,-79
2019-01-17T01:26:57.862Z,-77
2019-01-17T01:27:56.544Z,-80
2019-01-17T01:28:56.536Z,-78
2019-01-17T01:29:56.450Z,-79
2019-01-17T01:30:56.162Z,-81
2019-01-17T01:31:56.211Z,-79
2019-01-17T01:32:56.368Z,-78
2019-01-17T01:33:56.207Z,-79
2019-01-17T01:34:56.363Z,-78
2019-01-17T01:35:56.121Z,-79
2019-01-17T01:36:56.200Z,-79
2019-01-17T01:37:56.029Z,-80
2019-01-17T01:38:57.741Z,-78
2019-01-17T01:39:56.191Z,-79
2019-01-17T01:40:56.202Z,-80
2019-01-17T01:41:56.122Z,-79
2019-01-17T01:42:56.003Z,-79
2019-01-17T01:43:56.174Z,-79
2019-01-17T01:44:56.218Z,-79
2019-01-17T01:45:56.905Z,-80
2019-01-17T01:46:56.029Z,-79
2019-01-17T01:47:56.098Z,-80
2019-01-17T01:48:56.346Z,-78
2019-01-17T01:49:56.030Z,-79
2019-01-17T01:50:56.207Z,-79
2019-01-17T01:51:56.058Z,-80
2019-01-17T01:52:55.997Z,-79
2019-01-17T01:53:56.206Z,-80
2019-01-17T01:54:56.033Z,-80
2019-01-17T01:55:56.165Z,-80
2019-01-17T01:56:56.159Z,-79
2019-01-17T01:57:56.403Z,-78
2019-01-17T01:58:56.015Z,-80
2019-01-17T01:59:56.050Z,-79
2019-01-17T02:00:56.242Z,-80
2019-01-17T02:01:55.997Z,-79
2019-01-17T02:02:56.417Z,-79
2019-01-17T02:03:56.405Z,-78
2019-01-17T02:04:56.002Z,-79
2019-01-17T02:05:56.179Z,-79
2019-01-17T02:06:56.185Z,-79
2019-01-17T02:07:56.075Z,-80
2019-01-17T02:08:56.085Z,-80
2019-01-17T02:09:56.523Z,-78
2019-01-17T02:10:56.514Z,-79
2019-01-17T02:11:56.136Z,-79
2019-01-17T02:12:56.835Z,-79
2019-01-17T02:13:56.354Z,-78
2019-01-17T02:14:56.901Z,-78
2019-01-17T02:15:56.060Z,-80
2019-01-17T02:16:56.241Z,-79
2019-01-17T02:17:56.022Z,-78
2019-01-17T02:18:56.355Z,-80
2019-01-17T02:19:56.166Z,-79
2019-01-17T02:20:56.488Z,-80
2019-01-17T02:21:56.328Z,-78
2019-01-17T02:22:56.050Z,-78
2019-01-17T02:23:57.150Z,-79
2019-01-17T02:24:56.030Z,-79
2019-01-17T02:25:56.245Z,-79
2019-01-17T02:26:55.982Z,-80
2019-01-17T02:27:55.958Z,-79
2019-01-17T02:28:55.971Z,-79
2019-01-17T02:29:57.467Z,-78
2019-01-17T02:30:56.345Z,-79
2019-01-17T02:31:56.354Z,-79
2019-01-17T02:32:56.243Z,-79
2019-01-17T02:33:55.996Z,-79
2019-01-17T02:34:55.979Z,-79
2019-01-17T02:35:56.835Z,-78
2019-01-17T02:36:56.504Z,-78
2019-01-17T02:37:56.829Z,-78
2019-01-17T02:38:56.519Z,-79
2019-01-17T02:39:56.194Z,-79
2019-01-17T02:40:56.343Z,-79
2019-01-17T02:41:56.111Z,-79
2019-01-17T02:42:56.200Z,-79
2019-01-17T02:43:55.952Z,-79
2019-01-17T02:44:55.971Z,-80
2019-01-17T02:45:55.979Z,-79
2019-01-17T02:46:55.999Z,-79
2019-01-17T02:47:57.822Z,-75
2019-01-17T02:48:56.091Z,-79
2019-01-17T02:49:56.058Z,-80
2019-01-17T02:50:56.581Z,-80
2019-01-17T02:51:56.301Z,-79
2019-01-17T02:52:56.524Z,-80
2019-01-17T02:53:56.213Z,-79
2019-01-17T02:54:56.075Z,-79
2019-01-17T02:55:56.021Z,-80
2019-01-17T02:56:56.036Z,-80
2019-01-17T02:57:56.552Z,-78
2019-01-17T02:58:56.006Z,-80
2019-01-17T02:59:55.971Z,-80
2019-01-17T03:00:56.070Z,-79
2019-01-17T03:01:56.360Z,-79
2019-01-17T03:02:56.835Z,-77
2019-01-17T03:03:56.259Z,-78
2019-01-17T03:04:56.128Z,-80
2019-01-17T03:05:56.422Z,-79
2019-01-17T03:06:56.666Z,-78
2019-01-17T03:07:56.598Z,-79
2019-01-17T03:08:55.930Z,-79
2019-01-17T03:09:55.952Z,-78
2019-01-17T03:10:56.062Z,-79
2019-01-17T03:11:55.926Z,-79
2019-01-17T03:12:55.987Z,-79
2019-01-17T03:13:55.956Z,-76
2019-01-17T03:14:56.340Z,-78
2019-01-17T03:15:55.878Z,-79
2019-01-17T03:16:55.989Z,-79
2019-01-17T03:17:56.350Z,-80
2019-01-17T03:18:56.218Z,-79
2019-01-17T03:19:56.317Z,-80
2019-01-17T03:20:56.382Z,-80
2019-01-17T03:21:55.988Z,-80
2019-01-17T03:22:55.986Z,-80
2019-01-17T03:23:55.954Z,-80
2019-01-17T03:24:55.923Z,-79
2019-01-17T03:25:56.341Z,-76
2019-01-17T03:26:56.002Z,-79
2019-01-17T03:27:55.921Z,-79
2019-01-17T03:28:55.904Z,-79
2019-01-17T03:29:55.942Z,-79
2019-01-17T03:30:56.218Z,-80
2019-01-17T03:31:55.971Z,-79
2019-01-17T03:32:56.083Z,-79
2019-01-17T03:33:55.884Z,-80
2019-01-17T03:34:55.905Z,-79
2019-01-17T03:35:55.897Z,-78
2019-01-17T03:36:55.907Z,-79
2019-01-17T03:37:55.919Z,-79
2019-01-17T03:38:55.889Z,-79
2019-01-17T03:39:56.435Z,-79
2019-01-17T03:40:55.862Z,-79
2019-01-17T03:41:55.969Z,-78
2019-01-17T03:42:55.913Z,-79
2019-01-17T03:43:55.915Z,-79
2019-01-17T03:44:56.186Z,-78
2019-01-17T03:45:55.906Z,-79
2019-01-17T03:46:55.948Z,-79
2019-01-17T03:47:55.930Z,-78
2019-01-17T03:48:56.188Z,-78
2019-01-17T03:49:55.932Z,-79
2019-01-17T03:50:56.110Z,-78
2019-01-17T03:51:56.475Z,-78
2019-01-17T03:52:55.935Z,-78
2019-01-17T03:53:56.272Z,-77
2019-01-17T03:54:56.211Z,-78
2019-01-17T03:55:56.001Z,-81
2019-01-17T03:56:55.938Z,-79
2019-01-17T03:57:55.943Z,-79
2019-01-17T03:58:56.253Z,-79
2019-01-17T03:59:55.892Z,-81
2019-01-17T04:00:56.412Z,-80
2019-01-17T04:01:55.887Z,-80
2019-01-17T04:02:56.208Z,-78
2019-01-17T04:03:56.432Z,-79
2019-01-17T04:04:56.511Z,-76
2019-01-17T04:05:55.870Z,-79
2019-01-17T04:06:56.075Z,-79
2019-01-17T04:07:59.545Z,-79
2019-01-17T04:08:55.908Z,-79
2019-01-17T04:09:56.998Z,-79
2019-01-17T04:10:56.110Z,-79
2019-01-17T04:11:56.043Z,-80
2019-01-17T04:12:56.806Z,-79
2019-01-17T04:13:56.190Z,-79
2019-01-17T04:14:55.948Z,-80
2019-01-17T04:15:57.083Z,-80
2019-01-17T04:16:55.907Z,-80
2019-01-17T04:17:55.949Z,-81
2019-01-17T04:18:56.190Z,-80
2019-01-17T04:19:55.849Z,-80
2019-01-17T04:20:57.742Z,-80
2019-01-17T04:21:56.535Z,-80
2019-01-17T04:22:56.022Z,-79
2019-01-17T04:23:55.962Z,-80
2019-01-17T04:24:57.844Z,-77
2019-01-17T04:25:56.413Z,-80
2019-01-17T04:26:55.851Z,-80
2019-01-17T04:27:55.961Z,-79
2019-01-17T04:28:56.062Z,-80
2019-01-17T04:29:55.916Z,-81
2019-01-17T04:30:56.075Z,-78
2019-01-17T04:31:55.849Z,-79
2019-01-17T04:32:55.995Z,-80
2019-01-17T04:33:55.831Z,-79
2019-01-17T04:34:56.399Z,-79
2019-01-17T04:35:55.883Z,-79
2019-01-17T04:36:55.877Z,-79
2019-01-17T04:37:55.900Z,-79
2019-01-17T04:38:55.895Z,-78
2019-01-17T04:39:56.043Z,-80
2019-01-17T04:40:56.076Z,-79
2019-01-17T04:41:56.182Z,-79
2019-01-17T04:42:56.062Z,-79
2019-01-17T04:43:55.895Z,-80
2019-01-17T04:44:55.900Z,-79
2019-01-17T04:45:56.288Z,-79
2019-01-17T04:46:57.623Z,-79
2019-01-17T04:47:56.025Z,-79
2019-01-17T04:48:55.869Z,-79
2019-01-17T04:49:56.257Z,-79
2019-01-17T04:50:55.800Z,-79
2019-01-17T04:51:55.865Z,-78
2019-01-17T04:52:55.944Z,-79
2019-01-17T04:53:55.833Z,-79
2019-01-17T04:54:56.490Z,-79
2019-01-17T04:55:55.836Z,-79
2019-01-17T04:56:55.793Z,-79
2019-01-17T04:57:56.112Z,-79
2019-01-17T04:58:55.832Z,-79
2019-01-17T04:59:56.035Z,-79
2019-01-17T05:00:57.164Z,-79
2019-01-17T05:01:56.040Z,-79
2019-01-17T05:02:56.304Z,-79
2019-01-17T05:03:55.985Z,-79
2019-01-17T05:04:55.930Z,-79
2019-01-17T05:05:55.915Z,-79
2019-01-17T05:06:55.850Z,-79
2019-01-17T05:07:56.101Z,-79
2019-01-17T05:08:55.898Z,-79
2019-01-17T05:09:55.751Z,-79
2019-01-17T05:10:55.805Z,-77
2019-01-17T05:11:55.793Z,-79
2019-01-17T05:12:56.022Z,-80
2019-01-17T05:13:55.941Z,-80
2019-01-17T05:14:55.959Z,-79
2019-01-17T05:15:55.913Z,-77
2019-01-17T05:16:56.969Z,-79
2019-01-17T05:17:55.965Z,-79
2019-01-17T05:18:55.771Z,-79
2019-01-17T05:19:56.027Z,-80
2019-01-17T05:20:55.767Z,-78
2019-01-17T05:21:55.887Z,-78
2019-01-17T05:22:55.934Z,-78
2019-01-17T05:23:55.790Z,-79
2019-01-17T05:24:55.903Z,-78
2019-01-17T05:25:57.707Z,-78
2019-01-17T05:26:57.322Z,-79
2019-01-17T05:27:56.108Z,-78
2019-01-17T05:28:55.806Z,-78
2019-01-17T05:29:56.067Z,-78
2019-01-17T05:30:55.898Z,-78
2019-01-17T05:31:57.617Z,-78
2019-01-17T05:32:56.060Z,-78
2019-01-17T05:33:55.775Z,-79
2019-01-17T05:34:55.688Z,-79
2019-01-17T05:35:55.950Z,-78
2019-01-17T05:36:56.067Z,-79
2019-01-17T05:37:55.850Z,-79
2019-01-17T05:38:55.972Z,-78
2019-01-17T05:39:56.070Z,-79
2019-01-17T05:40:55.952Z,-77
2019-01-17T05:41:55.735Z,-78
2019-01-17T05:42:55.981Z,-79
2019-01-17T05:43:55.796Z,-78
2019-01-17T05:44:55.883Z,-78
2019-01-17T05:45:56.009Z,-79
2019-01-17T05:46:55.710Z,-80
2019-01-17T05:47:56.217Z,-79
2019-01-17T05:48:55.894Z,-79
2019-01-17T05:49:57.553Z,-76
2019-01-17T05:50:55.759Z,-78
2019-01-17T05:51:55.876Z,-78
2019-01-17T05:52:55.734Z,-78
2019-01-17T05:53:56.083Z,-78
2019-01-17T05:54:55.796Z,-79
2019-01-17T05:55:56.712Z,-78
2019-01-17T05:56:55.888Z,-79
2019-01-17T05:57:56.021Z,-79
2019-01-17T05:58:55.754Z,-76
2019-01-17T05:59:56.767Z,-79
2019-01-17T06:00:55.880Z,-78
2019-01-17T06:01:55.743Z,-79
2019-01-17T06:02:55.817Z,-77
2019-01-17T06:03:55.744Z,-78
2019-01-17T06:04:55.946Z,-78
2019-01-17T06:05:55.722Z,-78
2019-01-17T06:06:55.943Z,-78
2019-01-17T06:07:55.961Z,-78
2019-01-17T06:08:56.059Z,-79
2019-01-17T06:09:56.311Z,-78
2019-01-17T06:10:56.765Z,-78
2019-01-17T06:11:55.713Z,-79
2019-01-17T06:12:56.407Z,-78
2019-01-17T06:13:55.827Z,-79
2019-01-17T06:14:55.699Z,-78
2019-01-17T06:15:55.705Z,-78
2019-01-17T06:16:55.684Z,-79
2019-01-17T06:17:56.139Z,-77
2019-01-17T06:18:55.931Z,-78
2019-01-17T06:19:55.795Z,-79
2019-01-17T06:20:57.502Z,-78
2019-01-17T06:21:55.956Z,-79
2019-01-17T06:22:55.679Z,-78
2019-01-17T06:23:56.371Z,-78
2019-01-17T06:24:55.971Z,-78
2019-01-17T06:25:55.919Z,-78
2019-01-17T06:26:55.714Z,-78
2019-01-17T06:27:55.915Z,-78
2019-01-17T06:28:55.715Z,-78
2019-01-17T06:29:55.674Z,-78
2019-01-17T06:30:55.752Z,-77
2019-01-17T06:31:57.869Z,-78
2019-01-17T06:32:55.775Z,-77
2019-01-17T06:33:55.806Z,-78
2019-01-17T06:34:55.777Z,-78
2019-01-17T06:35:55.772Z,-78
2019-01-17T06:36:55.796Z,-77
2019-01-17T06:37:55.790Z,-78
2019-01-17T06:38:55.784Z,-78
2019-01-17T06:39:57.505Z,-77
2019-01-17T06:40:56.366Z,-77
2019-01-17T06:41:56.221Z,-78
2019-01-17T06:42:55.831Z,-78
2019-01-17T06:43:55.728Z,-79
2019-01-17T06:44:55.711Z,-79
2019-01-17T06:45:55.753Z,-79
2019-01-17T06:46:55.659Z,-78
2019-01-17T06:47:55.603Z,-79
2019-01-17T06:48:55.737Z,-78
2019-01-17T06:49:55.804Z,-79
2019-01-17T06:51:03.725Z,-77
2019-01-17T06:51:55.643Z,-79
2019-01-17T06:52:55.769Z,-79
2019-01-17T06:53:55.618Z,-80
2019-01-17T06:54:55.698Z,-78
2019-01-17T06:55:55.648Z,-80
2019-01-17T06:56:55.669Z,-79
2019-01-17T06:57:55.669Z,-78
2019-01-17T06:58:55.754Z,-80
2019-01-17T06:59:56.220Z,-78
2019-01-17T07:00:55.604Z,-79
2019-01-17T07:01:55.636Z,-79
2019-01-17T07:02:55.673Z,-78
2019-01-17T07:03:55.778Z,-79
2019-01-17T07:04:55.640Z,-80
2019-01-17T07:05:55.750Z,-79
2019-01-17T07:06:55.646Z,-78
2019-01-17T07:07:55.879Z,-77
2019-01-17T07:08:56.031Z,-79
2019-01-17T07:09:55.645Z,-79
2019-01-17T07:10:55.756Z,-79
2019-01-17T07:11:55.652Z,-79
2019-01-17T07:12:55.830Z,-78
2019-01-17T07:13:55.570Z,-78
2019-01-17T07:14:55.725Z,-79
2019-01-17T07:15:55.405Z,-79
2019-01-17T07:16:55.653Z,-79
2019-01-17T07:17:55.588Z,-80
2019-01-17T07:18:55.640Z,-80
2019-01-17T07:19:55.648Z,-79
2019-01-17T07:20:56.294Z,-79
2019-01-17T07:21:55.590Z,-79
2019-01-17T07:22:55.673Z,-80
2019-01-17T07:23:55.592Z,-79
2019-01-17T07:24:56.324Z,-78
2019-01-17T07:25:55.993Z,-79
2019-01-17T07:26:55.655Z,-79
2019-01-17T07:27:55.728Z,-79
2019-01-17T07:28:55.771Z,-78
2019-01-17T07:29:55.800Z,-79
2019-01-17T07:30:55.930Z,-78
2019-01-17T07:31:55.601Z,-78
2019-01-17T07:32:55.710Z,-79
2019-01-17T07:33:56.051Z,-79
2019-01-17T07:34:55.734Z,-79
2019-01-17T07:35:56.253Z,-76
2019-01-17T07:36:55.539Z,-78
2019-01-17T07:37:55.930Z,-79
2019-01-17T07:38:55.864Z,-78
2019-01-17T07:39:56.026Z,-78
2019-01-17T07:40:56.009Z,-79
2019-01-17T07:41:55.963Z,-78
2019-01-17T07:42:55.918Z,-78
2019-01-17T07:43:55.516Z,-80
2019-01-17T07:44:55.628Z,-78
2019-01-17T07:45:55.622Z,-80
2019-01-17T07:46:55.686Z,-79
2019-01-17T07:47:56.297Z,-80
2019-01-17T07:48:55.550Z,-80
2019-01-17T07:49:55.778Z,-79
2019-01-17T07:50:56.440Z,-78
2019-01-17T07:51:55.673Z,-79
2019-01-17T07:52:55.885Z,-78
2019-01-17T07:53:55.735Z,-78
2019-01-17T07:54:55.700Z,-78
2019-01-17T07:55:56.086Z,-76
2019-01-17T07:56:55.611Z,-78
2019-01-17T07:57:55.740Z,-78
2019-01-17T07:59:55.827Z,-78
2019-01-17T08:00:55.709Z,-78
2019-01-17T08:01:59.141Z,-78
2019-01-17T08:02:56.098Z,-78
2019-01-17T08:03:55.718Z,-78
2019-01-17T08:04:55.820Z,-78
2019-01-17T08:05:55.624Z,-79
2019-01-17T08:06:57.268Z,-79
2019-01-17T08:07:56.705Z,-79
2019-01-17T08:08:55.687Z,-79
2019-01-17T08:09:55.567Z,-79
2019-01-17T08:10:55.574Z,-76
2019-01-17T08:11:55.934Z,-79
2019-01-17T08:12:55.497Z,-79
2019-01-17T08:13:55.774Z,-79
2019-01-17T08:14:55.680Z,-79
2019-01-17T08:15:55.672Z,-79
2019-01-17T08:16:56.064Z,-79
2019-01-17T08:17:55.705Z,-79
2019-01-17T08:18:55.504Z,-79
2019-01-17T08:19:56.156Z,-78
2019-01-17T08:20:55.673Z,-76
2019-01-17T08:21:55.553Z,-80
2019-01-17T08:22:57.342Z,-75
2019-01-17T08:23:55.960Z,-80
2019-01-17T08:24:55.693Z,-79
2019-01-17T08:25:55.569Z,-79
2019-01-17T08:26:55.722Z,-79
2019-01-17T08:27:55.757Z,-79
2019-01-17T08:28:55.678Z,-80
2019-01-17T08:30:55.700Z,-81
2019-01-17T08:31:55.531Z,-81
2019-01-17T08:32:55.506Z,-79
2019-01-17T08:33:56.693Z,-79
2019-01-17T08:34:57.891Z,-79
2019-01-17T08:35:57.993Z,-77
2019-01-17T08:36:58.845Z,-79
2019-01-17T08:37:55.595Z,-78
2019-01-17T08:39:23.283Z,-79
2019-01-17T08:39:55.630Z,-78
2019-01-17T08:40:55.604Z,-82
2019-01-17T08:41:55.511Z,-79
2019-01-17T08:44:13.873Z,-77
2019-01-17T08:47:09.707Z,-77
2019-01-17T08:47:55.597Z,-79
2019-01-17T08:48:57.351Z,-78
2019-01-17T08:49:55.465Z,-79
2019-01-17T08:50:55.518Z,-79
2019-01-17T08:51:55.497Z,-79
2019-01-17T08:52:56.826Z,-79
2019-01-17T08:53:55.737Z,-81
2019-01-17T08:54:55.571Z,-78
2019-01-17T08:56:01.446Z,-78
2019-01-17T08:56:55.722Z,-79
2019-01-17T08:57:55.432Z,-79
2019-01-17T08:58:55.559Z,-80
2019-01-17T08:59:55.643Z,-80
2019-01-17T09:00:55.559Z,-78
2019-01-17T09:01:55.450Z,-78
2019-01-17T09:02:55.664Z,-79
2019-01-17T09:03:55.489Z,-79
2019-01-17T09:04:55.473Z,-79
2019-01-17T09:05:55.441Z,-79
2019-01-17T09:06:55.730Z,-78
2019-01-17T09:07:56.029Z,-78
2019-01-17T09:08:55.673Z,-79
2019-01-17T09:09:55.729Z,-78
2019-01-17T09:10:56.147Z,-77
2019-01-17T09:11:55.413Z,-77
2019-01-17T09:12:55.821Z,-79
2019-01-17T09:13:55.535Z,-79
2019-01-17T09:14:57.303Z,-77
2019-01-17T09:15:55.475Z,-79
2019-01-17T09:16:57.314Z,-78
2019-01-17T09:17:55.423Z,-81
2019-01-17T09:18:55.491Z,-80
2019-01-17T09:19:55.671Z,-79
2019-01-17T09:20:55.588Z,-79
2019-01-17T09:21:55.583Z,-79
2019-01-17T09:22:55.728Z,-79
2019-01-17T09:23:55.653Z,-81
2019-01-17T09:24:55.478Z,-78
2019-01-17T09:25:55.564Z,-81
2019-01-17T09:26:55.749Z,-78
2019-01-17T09:27:55.656Z,-78
2019-01-17T09:28:55.482Z,-79
2019-01-17T09:29:55.476Z,-78
2019-01-17T09:30:55.545Z,-80
2019-01-17T09:31:55.378Z,-79
2019-01-17T09:32:56.632Z,-79
2019-01-17T09:33:55.606Z,-78
2019-01-17T09:34:55.844Z,-79
2019-01-17T09:35:55.656Z,-78
2019-01-17T09:36:55.837Z,-78
2019-01-17T09:37:55.932Z,-76
2019-01-17T09:38:55.423Z,-79
2019-01-17T09:39:55.631Z,-78
2019-01-17T09:40:56.773Z,-78
2019-01-17T09:41:56.407Z,-78
2019-01-17T09:42:55.446Z,-78
2019-01-17T09:43:55.703Z,-77
2019-01-17T09:44:55.478Z,-79
2019-01-17T09:45:55.587Z,-78
2019-01-17T09:46:55.366Z,-78
2019-01-17T09:47:55.496Z,-79
2019-01-17T09:48:55.644Z,-79
2019-01-17T09:49:55.550Z,-80
2019-01-17T09:50:55.804Z,-78
2019-01-17T09:51:55.546Z,-78
2019-01-17T09:52:55.688Z,-78
2019-01-17T09:53:55.439Z,-79
2019-01-17T09:54:55.583Z,-78
2019-01-17T09:55:55.479Z,-80
2019-01-17T09:56:55.469Z,-79
2019-01-17T09:57:55.783Z,-78
2019-01-17T09:58:55.455Z,-80
2019-01-17T09:59:58.737Z,-78
2019-01-17T10:00:55.599Z,-79
2019-01-17T10:01:55.648Z,-79
2019-01-17T10:02:56.373Z,-78
2019-01-17T10:03:55.900Z,-78
2019-01-17T10:04:55.702Z,-79
2019-01-17T10:05:55.811Z,-79
2019-01-17T10:06:55.480Z,-79
2019-01-17T10:07:56.470Z,-79
2019-01-17T10:08:55.484Z,-79
2019-01-17T10:09:55.767Z,-77
2019-01-17T10:10:55.530Z,-79
2019-01-17T10:11:55.400Z,-79
2019-01-17T10:12:55.757Z,-79
2019-01-17T10:13:55.434Z,-78
2019-01-17T10:14:55.491Z,-80
2019-01-17T10:16:07.428Z,-79
2019-01-17T10:16:55.496Z,-78
2019-01-17T10:18:55.366Z,-79
2019-01-17T10:19:55.372Z,-79
2019-01-17T10:20:55.372Z,-79
2019-01-17T10:21:55.437Z,-79
2019-01-17T10:22:55.725Z,-76
2019-01-17T10:23:55.574Z,-80
2019-01-17T10:24:55.326Z,-81
2019-01-17T10:25:55.492Z,-80
2019-01-17T10:26:55.369Z,-80
2019-01-17T10:27:55.858Z,-80
2019-01-17T10:28:55.354Z,-80
2019-01-17T10:29:55.338Z,-80
2019-01-17T10:30:55.527Z,-79
2019-01-17T10:31:55.354Z,-80
2019-01-17T10:32:56.220Z,-78
2019-01-17T10:33:55.694Z,-78
2019-01-17T10:34:55.453Z,-79
2019-01-17T10:35:55.650Z,-77
2019-01-17T10:36:55.350Z,-77
2019-01-17T10:37:55.353Z,-78
2019-01-17T10:38:55.334Z,-78
2019-01-17T10:39:55.781Z,-75
2019-01-17T10:40:55.756Z,-76
2019-01-17T10:41:55.345Z,-77
2019-01-17T10:42:55.293Z,-76
2019-01-17T10:43:55.624Z,-76
2019-01-17T10:44:55.340Z,-77
2019-01-17T10:45:55.379Z,-77
2019-01-17T10:46:55.403Z,-77
2019-01-17T10:48:00.668Z,-75
2019-01-17T10:48:55.309Z,-77
2019-01-17T10:49:55.368Z,-77
2019-01-17T10:50:55.988Z,-75
2019-01-17T10:51:55.366Z,-77
2019-01-17T10:52:55.450Z,-77
2019-01-17T10:53:55.405Z,-77
2019-01-17T10:54:55.297Z,-77
2019-01-17T10:55:55.282Z,-76
2019-01-17T10:56:55.468Z,-78
2019-01-17T10:57:55.360Z,-77
2019-01-17T10:58:55.454Z,-77
2019-01-17T10:59:55.646Z,-76
2019-01-17T11:00:55.423Z,-76
2019-01-17T11:01:55.384Z,-78
2019-01-17T11:02:55.280Z,-76
2019-01-17T11:03:57.211Z,-74
2019-01-17T11:04:55.132Z,-76
2019-01-17T11:05:55.280Z,-77
2019-01-17T11:06:55.278Z,-76
2019-01-17T11:07:55.424Z,-76
2019-01-17T11:08:55.380Z,-77
2019-01-17T11:09:55.495Z,-76
2019-01-17T11:10:55.641Z,-75
2019-01-17T11:11:55.635Z,-76
2019-01-17T11:12:55.392Z,-77
2019-01-17T11:13:55.336Z,-76
2019-01-17T11:14:55.563Z,-77
2019-01-17T11:15:55.268Z,-76
2019-01-17T11:16:55.436Z,-77
2019-01-17T11:17:56.080Z,-75
2019-01-17T11:18:55.831Z,-75
2019-01-17T11:19:55.503Z,-77
2019-01-17T11:20:55.485Z,-77
2019-01-17T11:21:55.239Z,-78
2019-01-17T11:22:55.380Z,-77
2019-01-17T11:23:55.377Z,-77
2019-01-17T11:24:55.210Z,-77
2019-01-17T11:25:55.449Z,-76
2019-01-17T11:26:55.344Z,-77
2019-01-17T11:27:55.563Z,-77
2019-01-17T11:28:55.285Z,-78
2019-01-17T11:29:55.270Z,-78
2019-01-17T11:30:55.611Z,-76
2019-01-17T11:31:55.210Z,-78
2019-01-17T11:32:55.277Z,-77
2019-01-17T11:33:55.308Z,-77
2019-01-17T11:34:55.595Z,-75
2019-01-17T11:35:55.289Z,-77
2019-01-17T11:36:56.002Z,-76
2019-01-17T11:37:55.278Z,-74
2019-01-17T11:38:55.359Z,-77
2019-01-17T11:39:55.547Z,-76
2019-01-17T11:40:55.355Z,-76
2019-01-17T11:41:55.311Z,-76
2019-01-17T11:42:55.746Z,-75
2019-01-17T11:43:55.098Z,-76
2019-01-17T11:44:55.543Z,-76
2019-01-17T11:45:55.185Z,-76
2019-01-17T11:46:55.502Z,-77
2019-01-17T11:47:55.469Z,-77
2019-01-17T11:48:55.231Z,-77
2019-01-17T11:49:55.496Z,-76
2019-01-17T11:50:55.493Z,-79
2019-01-17T11:51:55.634Z,-76
2019-01-17T11:52:55.535Z,-77
2019-01-17T11:53:55.336Z,-77
2019-01-17T11:54:55.527Z,-77
2019-01-17T11:55:55.254Z,-77
2019-01-17T11:56:55.260Z,-77
2019-01-17T11:57:55.422Z,-78
2019-01-17T11:59:00.476Z,-77
2019-01-17T11:59:55.274Z,-78
2019-01-17T12:00:57.750Z,-77
2019-01-17T12:01:55.299Z,-78
2019-01-17T12:02:55.354Z,-76
2019-01-17T12:03:55.339Z,-76
2019-01-17T12:04:55.256Z,-77
2019-01-17T12:05:55.289Z,-76
2019-01-17T12:06:55.671Z,-74
2019-01-17T12:07:55.329Z,-76
2019-01-17T12:08:55.352Z,-76
2019-01-17T12:09:55.475Z,-75
2019-01-17T12:10:55.547Z,-76
2019-01-17T12:11:55.547Z,-75
2019-01-17T12:12:55.224Z,-75
2019-01-17T12:13:55.156Z,-76
2019-01-17T12:14:55.240Z,-77
2019-01-17T12:15:55.203Z,-76
2019-01-17T12:16:55.686Z,-76
2019-01-17T12:17:57.045Z,-74
2019-01-17T12:18:56.935Z,-75
2019-01-17T12:19:55.593Z,-76
2019-01-17T12:20:55.229Z,-76
2019-01-17T12:21:55.178Z,-76
2019-01-17T12:22:55.373Z,-73
2019-01-17T12:23:55.520Z,-75
2019-01-17T12:24:55.292Z,-76
2019-01-17T12:25:55.186Z,-77
2019-01-17T12:26:55.219Z,-77
2019-01-17T12:27:55.255Z,-76
2019-01-17T12:28:56.307Z,-77
2019-01-17T12:29:55.214Z,-76
2019-01-17T12:30:55.255Z,-76
2019-01-17T12:31:55.102Z,-76
2019-01-17T12:32:55.343Z,-75
2019-01-17T12:33:55.332Z,-76
2019-01-17T12:34:55.153Z,-75
2019-01-17T12:35:55.127Z,-76
2019-01-17T12:36:55.268Z,-76
2019-01-17T12:37:55.732Z,-75
2019-01-17T12:38:55.363Z,-76
2019-01-17T12:39:55.464Z,-75
2019-01-17T12:40:55.172Z,-75
2019-01-17T12:41:55.294Z,-76
2019-01-17T12:42:55.311Z,-76
2019-01-17T12:43:55.293Z,-75
2019-01-17T12:44:55.360Z,-76
2019-01-17T12:45:55.416Z,-76
2019-01-17T12:46:55.728Z,-74
2019-01-17T12:47:55.164Z,-76
2019-01-17T12:48:55.957Z,-77
2019-01-17T12:49:55.189Z,-76
2019-01-17T12:50:55.428Z,-76
2019-01-17T12:51:55.316Z,-78
2019-01-17T12:52:55.151Z,-77
2019-01-17T12:53:55.396Z,-77
2019-01-17T12:54:55.397Z,-77
2019-01-17T12:55:55.239Z,-78
2019-01-17T12:56:55.555Z,-76
2019-01-17T12:57:55.450Z,-78
2019-01-17T12:58:55.136Z,-78
2019-01-17T12:59:55.142Z,-78
2019-01-17T13:00:55.315Z,-78
2019-01-17T13:01:55.351Z,-78
2019-01-17T13:02:55.275Z,-77
2019-01-17T13:03:55.099Z,-77
2019-01-17T13:04:55.190Z,-77
2019-01-17T13:05:55.441Z,-76
2019-01-17T13:06:55.301Z,-77
2019-01-17T13:07:56.075Z,-76
2019-01-17T13:08:55.122Z,-76
2019-01-17T13:09:55.493Z,-76
2019-01-17T13:10:58.436Z,-76
2019-01-17T13:11:55.315Z,-77
2019-01-17T13:12:55.652Z,-77
2019-01-17T13:13:55.431Z,-76
2019-01-17T13:14:55.648Z,-76
2019-01-17T13:15:55.210Z,-76
2019-01-17T13:16:56.903Z,-77
2019-01-17T13:17:55.347Z,-77
2019-01-17T13:18:55.466Z,-77
2019-01-17T13:19:55.076Z,-77
2019-01-17T13:20:55.238Z,-77
2019-01-17T13:21:55.600Z,-76
2019-01-17T13:22:55.099Z,-78
2019-01-17T13:23:55.394Z,-77
2019-01-17T13:24:55.377Z,-77
2019-01-17T13:25:55.288Z,-78
2019-01-17T13:27:01.423Z,-78
2019-01-17T13:27:55.316Z,-78
2019-01-17T13:28:55.645Z,-77
2019-01-17T13:29:55.912Z,-77
2019-01-17T13:30:55.331Z,-77
2019-01-17T13:31:55.480Z,-77
2019-01-17T13:32:55.302Z,-77
2019-01-17T13:33:55.089Z,-77
2019-01-17T13:34:55.604Z,-78
2019-01-17T13:35:55.248Z,-77
2019-01-17T13:36:55.182Z,-77
2019-01-17T13:37:55.168Z,-77
2019-01-17T13:38:55.195Z,-76
2019-01-17T13:39:55.166Z,-77
2019-01-17T13:40:55.172Z,-77
2019-01-17T13:41:55.205Z,-76
2019-01-17T13:42:55.437Z,-77
2019-01-17T13:43:55.200Z,-77
2019-01-17T13:44:55.339Z,-76
2019-01-17T13:45:55.206Z,-76
2019-01-17T13:47:55.343Z,-77
2019-01-17T13:48:55.952Z,-76
2019-01-17T13:49:55.029Z,-77
2019-01-17T13:50:55.128Z,-77
2019-01-17T13:51:55.044Z,-77
2019-01-17T13:52:55.074Z,-76
2019-01-17T13:53:55.003Z,-77